Mc Caulley, Texas
Current Conditions -  °F | °C
As of 6:55 PM on Tuesday 21 Oct 2014 (Local Time) from KSWW Reporting Station
Broken Clouds Broken Clouds  
Wind Chill: 73°   Ceiling: 5500
Heat Index: 73°   Visibility: 10mi
Dew Point: 50°   Wind: 7mph
Humidity: 44%   Direction: 170°S
Pressure: 30.08"   Gusts: NA
Location:  32.7942°N, 100.223°W
Report Text: KSWW 212355Z AUTO 17006KT 10SM BKN055 23/10 A3008 RMK AO2 T02280100 10266 20228
Loading
Personal Weather Stations






























Interactive Weather Map
Tropical Storm Tracking
New forecast layout! Learn more

10-Day Weather Forecast

Advertisements
Track Severe Weather on mobile